createdAt,value
2022-09-12T00:00:31.940Z,99701.24
2022-09-12T00:05:54.430Z,99699.65
2022-09-12T00:10:56.843Z,99697.66
2022-09-12T00:15:59.199Z,99697.85
2022-09-12T00:21:02.575Z,99695.58
2022-09-12T00:26:06.288Z,99697.98
2022-09-12T00:31:10.180Z,99694.40
2022-09-12T00:37:04.128Z,99689.98
2022-09-12T00:42:06.497Z,99692.05
2022-09-12T00:47:11.731Z,99690.23
2022-09-12T00:52:18.620Z,99687.41
2022-09-12T00:57:23.676Z,99693.62
2022-09-12T01:02:26.494Z,99702.69
2022-09-12T01:07:29.142Z,99704.66
2022-09-12T01:12:33.553Z,99703.67
2022-09-12T01:17:38.833Z,99701.73
2022-09-12T01:22:54.331Z,99703.58
2022-09-12T01:27:56.588Z,99702.98
2022-09-12T01:33:01.843Z,99702.06
2022-09-12T01:38:10.334Z,99696.61
2022-09-12T01:43:21.244Z,99700.80
2022-09-12T01:48:26.440Z,99702.15
2022-09-12T01:53:34.070Z,99706.03
2022-09-12T01:58:40.360Z,99709.84
2022-09-12T02:03:45.648Z,99703.06
2022-09-12T02:08:52.280Z,99702.14
2022-09-12T02:13:58.941Z,99703.95
2022-09-12T02:19:07.815Z,99706.24
2022-09-12T02:24:13.234Z,99709.45
2022-09-12T02:29:15.733Z,99717.35
2022-09-12T02:34:20.970Z,99718.37
2022-09-12T02:39:23.389Z,99722.08
2022-09-12T02:44:27.611Z,99724.38
2022-09-12T02:49:30.032Z,99728.16
2022-09-12T02:54:32.473Z,99728.10
2022-09-12T02:59:34.774Z,99727.02
2022-09-12T03:04:38.065Z,99733.80
2022-09-12T03:09:44.212Z,99733.21
2022-09-12T03:14:46.640Z,99736.71
2022-09-12T03:19:57.259Z,99738.23
2022-09-12T03:25:05.614Z,99742.14
2022-09-12T03:30:08.248Z,99746.53
2022-09-12T03:35:10.816Z,99755.96
2022-09-12T03:40:13.282Z,99756.35
2022-09-12T03:45:16.515Z,99759.42
2022-09-12T03:50:18.891Z,99761.80
2022-09-12T03:55:21.202Z,99761.64
2022-09-12T04:00:23.732Z,99764.48
2022-09-12T04:05:26.552Z,99762.00
2022-09-12T04:10:29.090Z,99761.86
2022-09-12T04:15:31.406Z,99770.17
2022-09-12T04:20:33.724Z,99776.67
2022-09-12T04:25:36.103Z,99775.88
2022-09-12T04:30:38.682Z,99784.39
2022-09-12T04:35:41.591Z,99791.45
2022-09-12T04:47:23.040Z,99801.51
2022-09-12T04:52:25.361Z,99805.23
2022-09-12T04:57:27.875Z,99799.90
2022-09-12T05:02:30.349Z,99803.95
2022-09-12T05:07:32.803Z,99797.45
2022-09-12T05:12:36.601Z,99798.89
2022-09-12T05:17:38.966Z,99798.40
2022-09-12T05:22:41.312Z,99797.02
2022-09-12T05:27:46.417Z,99798.48
2022-09-12T05:32:52.300Z,99802.60
2022-09-12T05:37:55.741Z,99808.23
2022-09-12T05:42:58.067Z,99809.88
2022-09-12T05:48:00.478Z,99813.02
2022-09-12T05:54:01.244Z,99814.67
2022-09-12T05:59:04.710Z,99823.31
2022-09-12T06:04:07.450Z,99824.44
2022-09-12T06:09:10.455Z,99820.73
2022-09-12T06:14:13.892Z,99822.46
2022-09-12T06:19:17.413Z,99823.73
2022-09-12T06:24:20.718Z,99831.48
2022-09-12T06:29:23.029Z,99831.70
2022-09-12T06:34:26.992Z,99833.87
2022-09-12T06:39:29.422Z,99836.39
2022-09-12T06:44:31.708Z,99842.06
2022-09-12T06:49:34.174Z,99852.48
2022-09-12T06:54:36.488Z,99851.30
2022-09-12T06:59:38.840Z,99862.53
2022-09-12T07:04:41.144Z,99856.81
2022-09-12T07:09:44.510Z,99866.48
2022-09-12T07:14:47.559Z,99872.61
2022-09-12T07:19:49.855Z,99876.34
2022-09-12T07:24:53.990Z,99875.63
2022-09-12T07:29:56.292Z,99878.38
2022-09-12T07:34:58.593Z,99891.94
2022-09-12T07:40:01.229Z,99894.56
2022-09-12T07:45:03.907Z,99900.65
2022-09-12T07:50:06.854Z,99903.42
2022-09-12T07:55:09.266Z,99912.60
2022-09-12T08:00:11.802Z,99921.04
2022-09-12T08:05:14.126Z,99919.19
2022-09-12T08:10:16.432Z,99913.73
2022-09-12T08:15:20.221Z,99918.27
2022-09-12T08:20:25.344Z,99918.48
2022-09-12T08:25:31.017Z,99918.59
2022-09-12T08:30:33.523Z,99926.96
2022-09-12T08:35:35.906Z,99931.58
2022-09-12T08:40:41.178Z,99929.95
2022-09-12T08:45:51.727Z,99932.31
2022-09-12T08:50:54.156Z,99936.36
2022-09-12T08:55:59.056Z,99929.55
2022-09-12T09:01:04.588Z,99927.66
2022-09-12T09:06:13.182Z,99931.23
2022-09-12T09:11:17.504Z,99934.77
2022-09-12T09:16:22.974Z,99933.55
2022-09-12T09:21:28.652Z,99933.67
2022-09-12T09:26:39.172Z,99940.16
2022-09-12T09:31:42.330Z,99941.66
2022-09-12T09:36:48.352Z,99941.80
2022-09-12T09:41:50.832Z,99934.91
2022-09-12T09:46:55.491Z,99939.94
2022-09-12T09:52:00.568Z,99941.95
2022-09-12T09:57:04.987Z,99951.91
2022-09-12T10:02:10.742Z,99948.75
2022-09-12T10:07:18.685Z,99952.60
2022-09-12T10:12:26.137Z,99953.46
2022-09-12T10:17:34.275Z,99956.92
2022-09-12T10:22:38.465Z,99954.81
2022-09-12T10:27:41.805Z,99946.05
2022-09-12T10:32:46.445Z,99955.16
2022-09-12T10:37:52.322Z,99956.31
2022-09-12T10:42:56.263Z,99957.45
2022-09-12T10:48:07.349Z,99957.59
2022-09-12T10:53:13.397Z,99963.48
2022-09-12T10:58:18.841Z,99964.60
2022-09-12T11:03:24.711Z,99960.69
2022-09-12T11:08:47.174Z,99962.88
2022-09-12T11:13:55.589Z,99962.09
2022-09-12T11:19:06.826Z,99963.27
2022-09-12T11:24:12.117Z,99965.64
2022-09-12T11:29:14.417Z,99960.95
2022-09-12T11:34:20.104Z,99957.37
2022-09-12T11:39:28.020Z,99959.14
2022-09-12T11:44:33.317Z,99957.41
2022-09-12T11:49:36.694Z,99957.59
2022-09-12T11:54:42.329Z,99958.66
2022-09-12T11:59:47.610Z,99966.75
2022-09-12T12:04:52.952Z,99968.48
2022-09-12T12:09:55.594Z,99971.39
2022-09-12T12:14:58.993Z,99975.04
2022-09-12T12:20:07.489Z,99969.02
2022-09-12T12:25:12.119Z,99982.66
2022-09-12T12:30:17.349Z,99982.30
2022-09-12T12:35:23.435Z,99978.12
2022-09-12T12:40:26.713Z,99976.12
2022-09-12T12:45:29.228Z,99967.21
2022-09-12T12:50:32.061Z,99967.67
2022-09-12T12:55:37.735Z,99961.21
2022-09-12T13:00:40.359Z,99962.48
2022-09-12T13:05:46.552Z,99975.79
2022-09-12T13:10:52.475Z,99975.88
2022-09-12T13:15:54.948Z,99980.04
2022-09-12T13:21:01.088Z,99981.87
2022-09-12T13:26:04.999Z,99978.46
2022-09-12T13:31:10.433Z,99971.75
2022-09-12T13:36:15.700Z,99974.86
2022-09-12T13:41:18.031Z,99964.89
2022-09-12T13:46:30.386Z,99965.36
2022-09-12T13:51:32.803Z,99980.68
2022-09-12T13:56:46.404Z,99973.71
2022-09-12T14:01:48.768Z,99969.83
2022-09-12T14:06:52.029Z,99966.22
2022-09-12T14:11:54.415Z,99974.21
2022-09-12T14:16:57.778Z,99973.30
2022-09-12T14:22:02.268Z,99977.17
2022-09-12T14:27:04.801Z,99978.20
2022-09-12T14:32:18.495Z,99977.10
2022-09-12T14:37:20.872Z,99970.33
2022-09-12T14:42:30.963Z,99975.55
2022-09-12T14:47:38.704Z,99984.58
2022-09-12T14:52:41.013Z,99988.02
2022-09-12T14:57:44.450Z,99986.63
2022-09-12T15:02:47.898Z,99997.93
2022-09-12T15:07:50.221Z,99986.52
2022-09-12T15:13:04.541Z,99994.04
2022-09-12T15:18:07.387Z,99992.05
2022-09-12T15:23:14.971Z,99994.76
2022-09-12T15:28:19.899Z,99996.14
2022-09-12T15:33:24.031Z,99988.45
2022-09-12T15:38:26.942Z,99987.85
2022-09-12T15:43:29.546Z,99993.33
2022-09-12T15:48:32.014Z,100000.70
2022-09-12T15:53:34.508Z,99992.45
2022-09-12T15:58:46.027Z,100004.95
2022-09-12T16:03:57.850Z,100001.42
2022-09-12T16:09:01.024Z,100000.81
2022-09-12T16:14:04.481Z,100005.09
2022-09-12T16:19:07.227Z,100004.06
2022-09-12T16:24:09.763Z,100009.63
2022-09-12T16:29:12.782Z,100003.42
2022-09-12T16:34:15.395Z,100011.19
2022-09-12T16:39:17.717Z,100013.38
2022-09-12T16:44:20.163Z,100008.48
2022-09-12T16:49:22.464Z,100005.95
2022-09-12T16:54:24.781Z,100002.80
2022-09-12T16:59:27.073Z,100000.72
2022-09-12T17:04:29.490Z,99998.98
2022-09-12T17:09:31.840Z,99998.25
2022-09-12T17:14:34.235Z,99998.30
2022-09-12T17:19:36.565Z,99999.06
2022-09-12T17:24:39.462Z,99992.64
2022-09-12T17:29:41.848Z,99990.13
2022-09-12T17:34:44.176Z,99990.98
2022-09-12T17:39:46.547Z,99992.50
2022-09-12T17:44:50.310Z,99993.98
2022-09-12T17:49:58.629Z,100001.13
2022-09-12T17:55:08.066Z,100003.33
2022-09-12T18:00:10.795Z,100005.27
2022-09-12T18:05:14.025Z,100010.70
2022-09-12T18:10:16.363Z,100011.85
2022-09-12T18:15:18.675Z,100009.01
2022-09-12T18:20:21.031Z,100003.38
2022-09-12T18:25:23.618Z,100007.84
2022-09-12T18:30:25.930Z,100009.13
2022-09-12T18:35:28.269Z,100009.29
2022-09-12T18:40:30.584Z,100013.27
2022-09-12T18:45:33.408Z,100013.30
2022-09-12T18:50:35.760Z,100011.12
2022-09-12T18:55:38.087Z,100004.41
2022-09-12T19:00:41.260Z,100009.73
2022-09-12T19:05:43.735Z,100000.29
2022-09-12T19:10:53.707Z,99996.05
2022-09-12T19:15:56.163Z,99997.20
2022-09-12T19:20:58.557Z,99995.89
2022-09-12T19:26:06.048Z,100001.48
2022-09-12T19:31:09.944Z,99995.14
2022-09-12T19:36:40.838Z,99996.64
2022-09-12T19:41:36.263Z,99987.00
2022-09-12T19:46:38.654Z,99985.77
2022-09-12T19:51:41.473Z,99985.95
2022-09-12T19:56:43.879Z,99980.85
2022-09-12T20:01:46.691Z,99982.16
2022-09-12T20:06:49.571Z,99971.81
2022-09-12T20:11:51.900Z,99971.27
2022-09-12T20:16:54.207Z,99968.54
2022-09-12T20:21:56.538Z,99967.10
2022-09-12T20:33:37.466Z,99965.00
2022-09-12T20:38:40.101Z,99963.77
2022-09-12T20:43:42.450Z,99963.05
2022-09-12T20:55:11.996Z,99960.14
2022-09-12T21:00:14.524Z,99953.92
2022-09-12T21:05:17.334Z,99946.51
2022-09-12T21:10:19.757Z,99945.89
2022-09-12T21:15:22.394Z,99940.73
2022-09-12T21:20:24.733Z,99939.00
2022-09-12T21:32:06.008Z,99943.55
2022-09-12T21:37:08.462Z,99945.23
2022-09-12T21:42:10.810Z,99940.58
2022-09-12T21:47:13.119Z,99935.39
2022-09-12T21:52:15.439Z,99934.27
2022-09-12T21:57:17.730Z,99935.52
2022-09-12T22:02:20.182Z,99933.96
2022-09-12T22:07:23.422Z,99922.80
2022-09-12T22:12:28.698Z,99922.12
2022-09-12T22:17:31.092Z,99919.92
2022-09-12T22:22:37.876Z,99917.64
2022-09-12T22:27:40.192Z,99920.52
2022-09-12T22:32:42.668Z,99919.86
2022-09-12T22:37:46.264Z,99920.20
2022-09-12T22:42:50.907Z,99923.34
2022-09-12T22:47:53.213Z,99918.48
2022-09-12T22:52:55.684Z,99916.44
2022-09-12T22:57:57.974Z,99915.94
2022-09-12T23:03:01.507Z,99914.23
2022-09-12T23:08:03.854Z,99912.16
2022-09-12T23:13:06.824Z,99913.27
2022-09-12T23:18:09.128Z,99911.88
2022-09-12T23:23:11.495Z,99903.36
2022-09-12T23:28:14.637Z,99897.90
2022-09-12T23:33:17.097Z,99888.90
2022-09-12T23:38:19.401Z,99886.94
2022-09-12T23:43:21.740Z,99882.87
2022-09-12T23:48:24.124Z,99881.50
2022-09-12T23:53:26.679Z,99880.63
2022-09-12T23:58:30.837Z,99880.55
